Time;durP1;ratioP1;P1;durP2;ratioP2;P2;SDS_P1;SDS_P2;PMS_P1;PMS_P2;Temp;Humidity;BMP_temperature;BMP_pressure;BME280_temperature;BME280_humidity;BME280_pressure;Samples;Min_cycle;Max_cycle;Signal;HPM_P1;HPM_P2
2022/12/06 00:01:11;;;;;;;9.80;6.77;;;3.00;99.90;;;;;;5051732;28;20462;-66
2022/12/06 00:03:38;;;;;;;11.47;7.83;;;3.00;99.90;;;;;;5051634;28;20962;-66
2022/12/06 00:06:07;;;;;;;11.70;8.17;;;3.00;99.90;;;;;;5051848;28;20445;-66
2022/12/06 00:08:34;;;;;;;11.40;7.20;;;3.00;99.90;;;;;;5051856;28;20463;-66
2022/12/06 00:11:07;;;;;;;9.93;6.83;;;2.90;99.90;;;;;;5051808;28;20457;-66
2022/12/06 00:13:34;;;;;;;10.23;6.90;;;3.00;99.90;;;;;;5051443;28;20446;-66
2022/12/06 00:16:02;;;;;;;10.60;7.17;;;2.90;99.90;;;;;;5051458;28;20445;-66
2022/12/06 00:18:30;;;;;;;12.17;7.93;;;2.90;99.90;;;;;;5051699;28;20453;-66
2022/12/06 00:20:57;;;;;;;11.17;7.67;;;2.90;99.90;;;;;;5051539;28;20765;-66
2022/12/06 00:23:23;;;;;;;10.00;7.40;;;2.80;99.90;;;;;;5051430;28;20481;-66
2022/12/06 00:25:50;;;;;;;13.93;7.93;;;2.80;99.90;;;;;;5051394;28;20453;-66
2022/12/06 00:28:18;;;;;;;11.13;6.87;;;2.90;99.90;;;;;;5051548;28;20738;-66
2022/12/06 00:30:45;;;;;;;8.87;6.70;;;2.90;99.90;;;;;;5051409;28;20460;-66
2022/12/06 00:33:12;;;;;;;12.23;8.07;;;2.90;99.90;;;;;;5050959;28;20452;-66
2022/12/06 00:35:38;;;;;;;10.30;7.77;;;2.90;99.90;;;;;;5051125;28;20547;-66
2022/12/06 00:38:05;;;;;;;8.40;6.57;;;2.90;99.90;;;;;;5051324;28;20445;-66
2022/12/06 00:40:32;;;;;;;8.60;6.30;;;2.90;99.90;;;;;;5051592;28;20453;-66
2022/12/06 00:42:59;;;;;;;9.30;6.40;;;2.90;99.90;;;;;;5051587;28;20445;-66
2022/12/06 00:45:27;;;;;;;9.07;6.07;;;2.90;99.90;;;;;;5051350;28;20471;-66
2022/12/06 00:47:53;;;;;;;10.87;7.40;;;2.90;99.90;;;;;;5051391;28;20450;-66
2022/12/06 00:50:20;;;;;;;8.53;6.83;;;2.90;99.90;;;;;;5051214;28;20445;-66
2022/12/06 00:52:47;;;;;;;9.30;6.33;;;2.90;99.90;;;;;;5051043;28;20449;-66
2022/12/06 00:55:14;;;;;;;8.30;6.90;;;2.90;99.90;;;;;;5051119;28;20492;-66
2022/12/06 00:57:40;;;;;;;8.00;6.20;;;2.90;99.90;;;;;;5051402;28;20445;-66
2022/12/06 01:00:08;;;;;;;7.30;5.70;;;2.90;99.90;;;;;;5051339;28;20447;-66
2022/12/06 01:02:36;;;;;;;7.70;5.73;;;2.80;99.90;;;;;;5051291;28;20537;-66
2022/12/06 01:05:04;;;;;;;8.20;6.33;;;2.80;99.90;;;;;;5050818;28;20489;-66
2022/12/06 01:07:30;;;;;;;8.07;6.70;;;2.80;99.90;;;;;;5051072;28;20560;-66
2022/12/06 01:09:57;;;;;;;8.60;7.00;;;2.80;99.90;;;;;;5051237;28;20448;-66
2022/12/06 01:12:24;;;;;;;7.57;6.20;;;2.80;99.90;;;;;;5051276;28;20456;-66
2022/12/06 01:14:50;;;;;;;10.13;6.53;;;2.80;99.90;;;;;;5050996;28;20473;-66
2022/12/06 01:17:17;;;;;;;10.60;6.43;;;2.90;99.90;;;;;;5050676;28;20957;-66
2022/12/06 01:19:45;;;;;;;7.83;6.60;;;2.80;99.90;;;;;;5050840;28;20454;-66
2022/12/06 01:22:12;;;;;;;7.80;6.60;;;2.80;99.90;;;;;;5051189;28;20846;-66
2022/12/06 01:24:38;;;;;;;6.90;5.37;;;2.80;99.90;;;;;;5050821;28;20484;-66
2022/12/06 01:27:05;;;;;;;7.70;6.47;;;2.80;99.90;;;;;;5051104;28;20450;-66
2022/12/06 01:29:32;;;;;;;8.00;6.37;;;2.80;99.90;;;;;;5050899;28;20449;-66
2022/12/06 01:31:59;;;;;;;6.90;6.13;;;2.80;99.90;;;;;;5050684;28;20478;-66
2022/12/06 01:34:25;;;;;;;7.90;6.47;;;2.70;99.90;;;;;;5050783;28;20466;-66
2022/12/06 01:36:53;;;;;;;6.60;6.00;;;2.70;99.90;;;;;;5051092;28;20454;-66
2022/12/06 01:39:20;;;;;;;6.83;6.07;;;2.70;99.90;;;;;;5050928;28;20462;-66
2022/12/06 01:41:47;;;;;;;7.53;6.17;;;2.70;99.90;;;;;;5050845;28;20516;-66
2022/12/06 01:44:39;;;;;;;7.23;6.10;;;2.70;99.90;;;;;;5051101;28;20644;-66
2022/12/06 01:47:10;;;;;;;7.73;6.63;;;2.60;99.90;;;;;;5054681;28;20532;-65
2022/12/06 01:49:37;;;;;;;6.50;5.30;;;2.60;99.90;;;;;;5054377;28;20444;-66
2022/12/06 01:52:09;;;;;;;8.43;6.60;;;2.60;99.90;;;;;;5054397;28;20449;-66
2022/12/06 01:54:37;;;;;;;7.23;6.53;;;2.60;99.90;;;;;;5053949;28;20988;-66
2022/12/06 01:57:08;;;;;;;6.57;5.87;;;2.60;99.90;;;;;;5054248;28;20460;-66
2022/12/06 01:59:36;;;;;;;6.30;5.70;;;2.60;99.90;;;;;;5054382;28;20457;-66
2022/12/06 02:02:03;;;;;;;6.70;6.00;;;2.60;99.90;;;;;;5054278;28;20457;-66
2022/12/06 02:04:31;;;;;;;10.03;6.00;;;2.60;99.90;;;;;;5053771;28;20489;-66
2022/12/06 02:06:59;;;;;;;7.20;5.90;;;2.70;99.90;;;;;;5054146;28;20452;-66
2022/12/06 02:09:29;;;;;;;11.00;5.53;;;2.60;99.90;;;;;;5053717;28;20450;-66
2022/12/06 02:11:56;;;;;;;13.60;6.43;;;2.60;99.90;;;;;;5054086;28;20457;-66
2022/12/06 02:14:27;;;;;;;6.67;5.97;;;2.60;99.90;;;;;;5054072;28;20470;-66
2022/12/06 02:17:14;;;;;;;6.30;5.70;;;2.60;99.90;;;;;;5053714;28;20446;-66
2022/12/06 02:20:04;;;;;;;10.70;5.50;;;2.60;99.90;;;;;;5053891;28;20449;-66
2022/12/06 02:22:49;;;;;;;8.47;6.00;;;2.60;99.90;;;;;;5053978;28;20453;-66
2022/12/06 02:25:34;;;;;;;6.60;5.57;;;2.60;99.90;;;;;;5053456;28;20490;-66
2022/12/06 02:28:32;;;;;;;8.13;6.30;;;2.70;99.90;;;;;;5053784;28;20445;-66
2022/12/06 02:31:07;;;;;;;7.70;6.83;;;2.60;99.90;;;;;;5053613;28;20458;-66
2022/12/06 02:33:38;;;;;;;8.30;6.23;;;2.60;99.90;;;;;;5053688;28;21094;-66
2022/12/06 02:36:09;;;;;;;7.80;6.80;;;2.60;99.90;;;;;;5053319;28;20840;-66
2022/12/06 02:38:42;;;;;;;7.13;6.40;;;2.60;99.90;;;;;;5053753;28;20453;-66
2022/12/06 02:41:15;;;;;;;7.17;6.10;;;2.60;99.90;;;;;;5053553;28;20451;-66
2022/12/06 02:43:47;;;;;;;7.13;6.10;;;2.60;99.90;;;;;;5053339;28;20663;-66
2022/12/06 02:46:19;;;;;;;9.03;6.77;;;2.60;99.90;;;;;;5053313;28;20449;-66
2022/12/06 02:48:48;;;;;;;9.30;6.90;;;2.60;99.90;;;;;;5053268;28;20453;-66
2022/12/06 02:51:17;;;;;;;9.17;6.40;;;2.60;99.90;;;;;;5053260;28;20453;-66
2022/12/06 02:53:51;;;;;;;9.20;6.50;;;2.60;99.90;;;;;;5053314;28;20466;-66
2022/12/06 02:56:19;;;;;;;8.90;7.23;;;2.60;99.90;;;;;;5052250;28;20468;-66
2022/12/06 02:58:46;;;;;;;10.03;6.93;;;2.60;99.90;;;;;;5053071;28;20527;-66
2022/12/06 03:01:17;;;;;;;9.00;7.00;;;2.60;99.90;;;;;;5052819;28;20460;-66
2022/12/06 03:04:30;;;;;;;8.03;6.33;;;2.60;99.90;;;;;;5053262;28;20471;-66
2022/12/06 03:07:09;;;;;;;7.73;6.50;;;2.60;99.90;;;;;;5052954;28;20458;-66
2022/12/06 03:09:48;;;;;;;9.40;7.10;;;2.60;99.90;;;;;;5052956;28;20812;-66
2022/12/06 03:12:22;;;;;;;8.50;6.93;;;2.60;99.90;;;;;;5053238;28;20472;-66
2022/12/06 03:14:59;;;;;;;10.17;7.10;;;2.60;99.90;;;;;;5052674;28;20467;-65
2022/12/06 03:17:36;;;;;;;10.10;7.43;;;2.50;99.90;;;;;;5052285;28;20456;-66
2022/12/06 03:20:08;;;;;;;7.93;7.13;;;2.50;99.90;;;;;;5052780;28;20450;-66
2022/12/06 03:22:38;;;;;;;11.67;7.70;;;2.50;99.90;;;;;;5052783;28;20794;-66
2022/12/06 03:25:06;;;;;;;9.30;6.60;;;2.50;99.90;;;;;;5052326;28;20512;-66
2022/12/06 03:27:35;;;;;;;9.03;7.60;;;2.50;99.90;;;;;;5052566;28;20452;-66
2022/12/06 03:30:07;;;;;;;10.80;7.80;;;2.40;99.90;;;;;;5052294;28;20965;-66
2022/12/06 03:32:38;;;;;;;8.13;6.60;;;2.50;99.90;;;;;;5052634;28;20453;-66
2022/12/06 03:35:08;;;;;;;8.00;7.13;;;2.50;99.90;;;;;;5052356;28;20465;-65
2022/12/06 03:37:37;;;;;;;8.90;7.77;;;2.40;99.90;;;;;;5052754;28;20504;-66
2022/12/06 03:40:10;;;;;;;11.60;8.43;;;2.50;99.90;;;;;;5052109;28;20494;-66
2022/12/06 03:42:37;;;;;;;9.90;7.40;;;2.40;99.90;;;;;;5052625;28;20433;-66
2022/12/06 03:45:06;;;;;;;9.60;7.23;;;2.40;99.90;;;;;;5052016;28;20497;-66
2022/12/06 03:47:37;;;;;;;9.37;7.57;;;2.40;99.90;;;;;;5052305;28;20528;-66
2022/12/06 03:50:09;;;;;;;8.73;7.47;;;2.50;99.90;;;;;;5052060;28;20445;-66
2022/12/06 03:52:38;;;;;;;8.00;7.10;;;2.50;99.90;;;;;;5052123;28;20449;-66
2022/12/06 03:55:05;;;;;;;10.20;7.77;;;2.50;99.90;;;;;;5051599;28;21047;-66
2022/12/06 03:57:32;;;;;;;9.53;7.53;;;2.40;99.90;;;;;;5052265;28;20446;-66
2022/12/06 03:59:59;;;;;;;11.33;8.10;;;2.40;99.90;;;;;;5051967;28;20510;-66
2022/12/06 04:02:25;;;;;;;9.80;7.53;;;2.40;99.90;;;;;;5051976;28;20453;-66
2022/12/06 04:04:53;;;;;;;11.47;7.90;;;2.40;99.90;;;;;;5051532;28;20539;-67
2022/12/06 04:07:20;;;;;;;9.80;6.73;;;2.40;99.90;;;;;;5051722;28;20935;-66
2022/12/06 04:09:55;;;;;;;8.47;7.13;;;2.40;99.90;;;;;;5051950;28;20488;-66
2022/12/06 04:15:07;;;;;;;8.50;6.40;;;2.50;99.90;;;;;;5040626;28;20457;-66
2022/12/06 04:20:22;;;;;;;8.63;7.20;;;2.50;99.90;;;;;;5051760;28;20793;-66
2022/12/06 04:23:02;;;;;;;9.77;7.30;;;2.40;99.90;;;;;;5051725;28;20441;-66
2022/12/06 04:25:29;;;;;;;9.13;6.90;;;2.40;99.90;;;;;;5051262;28;20513;-66
2022/12/06 04:38:54;;;;;;;13.40;7.23;;;2.50;99.90;;;;;;5051562;28;20908;-66
2022/12/06 04:44:01;;;;;;;10.10;6.50;;;2.50;99.90;;;;;;5051458;28;20507;-66
2022/12/06 04:46:28;;;;;;;8.50;6.80;;;2.50;99.90;;;;;;5050977;28;20481;-66
2022/12/06 04:48:55;;;;;;;9.27;6.60;;;2.40;99.90;;;;;;5051651;28;20449;-66
2022/12/06 04:51:23;;;;;;;7.93;6.50;;;2.50;99.90;;;;;;5051337;28;20446;-66
2022/12/06 04:53:50;;;;;;;9.97;7.07;;;2.50;99.90;;;;;;5051531;28;20993;-66
2022/12/06 04:56:17;;;;;;;7.50;6.23;;;2.50;99.90;;;;;;5051482;28;20461;-66
2022/12/06 04:58:44;;;;;;;11.37;6.53;;;2.50;99.90;;;;;;5051385;28;20539;-66
2022/12/06 05:01:11;;;;;;;8.77;6.60;;;2.50;99.90;;;;;;5050947;28;20452;-66
2022/12/06 05:03:38;;;;;;;8.57;6.93;;;2.50;99.90;;;;;;5051389;28;20453;-66
2022/12/06 05:06:05;;;;;;;8.27;6.40;;;2.50;99.90;;;;;;5051128;28;20485;-66
2022/12/06 05:08:33;;;;;;;8.67;6.90;;;2.50;99.90;;;;;;5051333;28;20450;-66
2022/12/06 05:11:00;;;;;;;11.37;7.20;;;2.50;99.90;;;;;;5051272;28;20453;-66
2022/12/06 05:13:26;;;;;;;7.90;6.33;;;2.60;99.90;;;;;;5050951;28;20452;-66
2022/12/06 05:15:55;;;;;;;7.27;5.90;;;2.60;99.90;;;;;;5050726;28;20491;-66
2022/12/06 05:18:22;;;;;;;8.30;6.10;;;2.60;99.90;;;;;;5051284;28;20448;-66
2022/12/06 05:20:49;;;;;;;8.53;6.30;;;2.50;99.90;;;;;;5053081;28;20884;-66
2022/12/06 05:23:15;;;;;;;12.67;6.63;;;2.60;99.90;;;;;;5054941;28;20459;-66
2022/12/06 05:25:43;;;;;;;10.57;6.27;;;2.50;99.90;;;;;;5054323;28;21008;-66
2022/12/06 05:28:10;;;;;;;8.00;6.67;;;2.50;99.90;;;;;;5055173;28;20504;-66
2022/12/06 05:30:37;;;;;;;6.30;5.70;;;2.50;99.90;;;;;;5054860;28;20861;-66
2022/12/06 05:33:03;;;;;;;7.77;6.23;;;2.50;99.90;;;;;;5054741;28;20472;-66
2022/12/06 05:35:30;;;;;;;7.90;6.17;;;2.40;99.90;;;;;;5054603;28;20473;-66
2022/12/06 05:37:57;;;;;;;9.10;6.40;;;2.40;99.90;;;;;;5055065;28;20503;-66
2022/12/06 05:40:23;;;;;;;8.40;6.40;;;2.50;99.90;;;;;;5054386;28;20462;-66
2022/12/06 05:42:51;;;;;;;8.07;6.70;;;2.50;99.90;;;;;;5054623;28;20492;-66
2022/12/06 05:45:18;;;;;;;7.43;6.40;;;2.40;99.90;;;;;;5054321;28;20509;-66
2022/12/06 05:47:45;;;;;;;8.70;6.07;;;2.40;99.90;;;;;;5054433;28;20971;-66
2022/12/06 05:50:12;;;;;;;8.23;6.33;;;2.40;99.90;;;;;;5054376;28;20460;-66
2022/12/06 05:52:39;;;;;;;10.30;6.27;;;2.40;99.90;;;;;;5054071;28;20571;-66
2022/12/06 05:55:07;;;;;;;8.00;6.73;;;2.40;99.90;;;;;;5054005;28;20525;-66
2022/12/06 05:57:34;;;;;;;8.53;6.60;;;2.40;99.90;;;;;;5054409;28;20818;-66
2022/12/06 06:00:02;;;;;;;11.20;7.23;;;2.40;99.90;;;;;;5054336;28;20480;-66
2022/12/06 06:02:29;;;;;;;8.90;7.07;;;2.40;99.90;;;;;;5054177;28;20456;-66
2022/12/06 06:04:56;;;;;;;11.07;7.30;;;2.40;99.90;;;;;;5053870;28;20481;-66
2022/12/06 06:07:22;;;;;;;8.30;6.10;;;2.40;99.90;;;;;;5053962;28;20503;-66
2022/12/06 06:09:49;;;;;;;11.70;7.50;;;2.40;99.90;;;;;;5054209;28;20457;-66
2022/12/06 06:12:15;;;;;;;8.10;6.13;;;2.40;99.90;;;;;;5054015;28;20839;-66
2022/12/06 06:14:42;;;;;;;8.03;6.23;;;2.40;99.90;;;;;;5053878;28;20845;-66
2022/12/06 06:17:10;;;;;;;9.00;6.37;;;2.40;99.90;;;;;;5053560;28;20457;-66
2022/12/06 06:19:37;;;;;;;8.30;6.17;;;2.50;99.90;;;;;;5053738;28;20510;-66
2022/12/06 06:22:03;;;;;;;10.40;6.60;;;2.50;99.90;;;;;;5053806;28;20499;-66
2022/12/06 06:24:35;;;;;;;9.10;6.33;;;2.50;99.90;;;;;;5053757;28;20471;-66
2022/12/06 06:27:02;;;;;;;9.80;6.30;;;2.50;99.90;;;;;;5053709;28;20448;-66
2022/12/06 06:29:29;;;;;;;8.77;6.13;;;2.50;99.90;;;;;;5053665;28;20539;-66
2022/12/06 06:31:56;;;;;;;6.47;5.57;;;2.50;99.90;;;;;;5052128;28;20942;-66
2022/12/06 06:34:24;;;;;;;6.50;5.90;;;2.50;99.90;;;;;;5053420;28;20890;-66
2022/12/06 06:36:51;;;;;;;8.93;6.10;;;2.50;99.90;;;;;;5053690;28;20439;-66
2022/12/06 06:39:18;;;;;;;9.07;6.50;;;2.50;99.90;;;;;;5053595;28;20452;-66
2022/12/06 06:41:44;;;;;;;8.20;6.20;;;2.50;99.90;;;;;;5053436;28;20448;-67
2022/12/06 06:44:12;;;;;;;8.40;6.77;;;2.50;99.90;;;;;;5053374;28;20468;-66
2022/12/06 06:46:39;;;;;;;8.70;6.40;;;2.50;99.90;;;;;;5053475;28;20604;-66
2022/12/06 06:49:05;;;;;;;8.60;6.70;;;2.50;99.90;;;;;;5053565;28;20449;-66
2022/12/06 06:51:33;;;;;;;9.73;6.33;;;2.50;99.90;;;;;;5053343;28;20856;-66
2022/12/06 06:54:00;;;;;;;7.67;6.10;;;2.50;99.90;;;;;;5053263;28;20553;-66
2022/12/06 06:56:27;;;;;;;8.77;6.67;;;2.50;99.90;;;;;;5053105;28;20564;-66
2022/12/06 06:58:53;;;;;;;8.47;6.77;;;2.50;99.90;;;;;;5052967;28;20449;-66
2022/12/06 07:01:22;;;;;;;9.10;6.40;;;2.50;99.90;;;;;;5053184;28;20456;-66
2022/12/06 07:03:50;;;;;;;9.40;7.17;;;2.50;99.90;;;;;;5053043;28;20523;-66
2022/12/06 07:06:18;;;;;;;10.27;7.00;;;2.50;99.90;;;;;;5052890;28;20497;-66
2022/12/06 07:08:46;;;;;;;8.60;5.77;;;2.50;99.90;;;;;;5052859;28;20449;-66
2022/12/06 07:11:14;;;;;;;8.07;6.03;;;2.50;99.90;;;;;;5052826;28;20937;-66
2022/12/06 07:13:42;;;;;;;7.73;5.70;;;2.50;99.90;;;;;;5052483;28;20441;-66
2022/12/06 07:16:14;;;;;;;8.20;6.43;;;2.50;99.90;;;;;;5052400;28;20867;-66
2022/12/06 07:18:41;;;;;;;6.67;5.97;;;2.50;99.90;;;;;;5052834;28;20453;-66
2022/12/06 07:21:10;;;;;;;9.17;6.50;;;2.60;99.90;;;;;;5052620;28;20445;-66
2022/12/06 07:23:37;;;;;;;10.37;6.60;;;2.60;99.90;;;;;;5052381;28;20470;-66
2022/12/06 07:26:07;;;;;;;8.23;5.80;;;2.60;99.90;;;;;;5052575;28;20580;-66
2022/12/06 07:28:36;;;;;;;8.43;6.30;;;2.60;99.90;;;;;;5052720;28;20822;-66
2022/12/06 07:31:08;;;;;;;6.83;6.07;;;2.50;99.90;;;;;;5052581;28;20473;-67
2022/12/06 07:33:35;;;;;;;10.17;6.57;;;2.50;99.90;;;;;;5052314;28;20528;-66
2022/12/06 07:36:01;;;;;;;8.70;6.27;;;2.50;99.90;;;;;;5052125;28;20449;-66
2022/12/06 07:38:28;;;;;;;8.57;6.90;;;2.50;99.90;;;;;;5052532;28;20453;-66
2022/12/06 07:40:59;;;;;;;8.57;6.60;;;2.50;99.90;;;;;;5052411;28;20445;-66
2022/12/06 07:46:12;;;;;;;7.63;6.43;;;2.50;99.90;;;;;;5052124;28;20480;-66
2022/12/06 07:48:39;;;;;;;9.50;6.40;;;2.50;99.90;;;;;;5052023;28;20449;-66
2022/12/06 07:51:06;;;;;;;7.77;6.50;;;2.60;99.90;;;;;;5052393;28;20450;-66
2022/12/06 07:53:33;;;;;;;7.03;5.90;;;2.60;99.90;;;;;;5052144;28;20523;-66
2022/12/06 07:56:06;;;;;;;9.50;5.97;;;2.60;99.90;;;;;;5052210;28;20473;-66
2022/12/06 07:58:34;;;;;;;8.00;5.80;;;2.60;99.90;;;;;;5052045;28;20512;-67
2022/12/06 08:01:02;;;;;;;7.23;6.20;;;2.60;99.90;;;;;;5051862;28;20503;-67
2022/12/06 08:03:29;;;;;;;6.17;5.43;;;2.60;99.90;;;;;;5051714;28;20454;-67
2022/12/06 08:05:55;;;;;;;8.57;6.50;;;2.60;99.90;;;;;;5051961;28;20497;-67
2022/12/06 08:08:22;;;;;;;6.50;5.30;;;2.70;99.90;;;;;;5051959;28;20451;-67
2022/12/06 08:10:49;;;;;;;7.70;6.00;;;2.70;99.90;;;;;;5051604;28;20511;-67
2022/12/06 08:13:15;;;;;;;6.90;6.00;;;2.70;99.90;;;;;;5051688;28;20499;-67
2022/12/06 08:15:43;;;;;;;7.10;5.70;;;2.70;99.90;;;;;;5050988;28;20866;-67
2022/12/06 08:18:10;;;;;;;9.00;5.83;;;2.80;99.90;;;;;;5051889;28;20490;-67
2022/12/06 08:20:38;;;;;;;6.67;5.33;;;2.80;99.90;;;;;;5051684;28;20445;-67
2022/12/06 08:23:05;;;;;;;6.00;5.40;;;2.80;99.90;;;;;;5051639;28;20501;-67
2022/12/06 08:25:32;;;;;;;10.27;6.07;;;2.80;99.90;;;;;;5051358;28;20532;-67
2022/12/06 08:27:58;;;;;;;6.47;5.53;;;2.80;99.90;;;;;;5051521;28;20476;-66
2022/12/06 08:30:25;;;;;;;8.53;6.13;;;2.90;99.90;;;;;;5051714;28;20499;-67
2022/12/06 08:32:53;;;;;;;7.23;6.40;;;2.90;99.90;;;;;;5051637;28;20447;-67
2022/12/06 08:35:19;;;;;;;8.80;5.63;;;2.90;99.90;;;;;;5051450;28;20526;-67
2022/12/06 08:37:46;;;;;;;6.60;5.63;;;2.90;99.90;;;;;;5051575;28;20453;-67
2022/12/06 08:40:13;;;;;;;8.30;5.73;;;2.90;99.90;;;;;;5051271;28;20449;-67
2022/12/06 08:42:40;;;;;;;9.20;6.30;;;2.90;99.90;;;;;;5051767;28;20461;-66
2022/12/06 08:45:09;;;;;;;6.17;5.60;;;3.00;99.90;;;;;;5051397;28;20481;-67
2022/12/06 08:47:35;;;;;;;8.63;6.23;;;3.00;99.90;;;;;;5051875;28;20541;-67
2022/12/06 08:50:04;;;;;;;10.17;6.47;;;3.00;99.90;;;;;;5051793;28;20449;-67
2022/12/06 08:52:30;;;;;;;6.50;5.47;;;3.00;99.90;;;;;;5051391;28;20511;-66
2022/12/06 08:54:57;;;;;;;6.90;5.97;;;3.00;99.90;;;;;;5051681;28;20989;-67
2022/12/06 08:57:24;;;;;;;6.93;6.20;;;3.00;99.90;;;;;;5055492;28;20468;-67
2022/12/06 08:59:51;;;;;;;9.00;6.13;;;3.10;99.90;;;;;;5055285;28;20507;-67
2022/12/06 09:02:17;;;;;;;9.30;5.97;;;3.10;99.90;;;;;;5055372;28;20449;-65
2022/12/06 09:04:44;;;;;;;6.10;5.07;;;3.10;99.90;;;;;;5055046;28;20469;-66
2022/12/06 09:07:12;;;;;;;6.37;5.63;;;3.20;99.90;;;;;;5055238;28;20477;-65
2022/12/06 09:09:39;;;;;;;10.33;5.53;;;3.20;99.90;;;;;;5054944;28;20449;-65
2022/12/06 09:12:06;;;;;;;5.50;4.93;;;3.20;99.90;;;;;;5055500;28;20546;-66
2022/12/06 09:14:33;;;;;;;7.07;5.70;;;3.20;99.90;;;;;;5055291;28;20478;-65
2022/12/06 09:16:59;;;;;;;6.60;5.70;;;3.30;99.90;;;;;;5054689;28;20460;-65
2022/12/06 09:19:26;;;;;;;5.90;5.27;;;3.30;99.90;;;;;;5054877;28;20451;-65
2022/12/06 09:21:53;;;;;;;6.00;5.40;;;3.30;99.90;;;;;;5055075;28;20821;-65
2022/12/06 09:24:21;;;;;;;6.60;5.90;;;3.30;99.90;;;;;;5055057;28;20478;-65
2022/12/06 09:26:48;;;;;;;5.80;5.07;;;3.30;99.90;;;;;;5054982;28;20576;-66
2022/12/06 09:29:16;;;;;;;6.30;5.70;;;3.30;99.90;;;;;;5054677;28;20453;-65
2022/12/06 09:31:42;;;;;;;7.53;5.77;;;3.30;99.90;;;;;;5054637;28;20453;-65
2022/12/06 09:34:11;;;;;;;8.23;5.30;;;3.30;99.90;;;;;;5054383;28;20472;-65
2022/12/06 09:36:41;;;;;;;5.73;5.23;;;3.40;99.90;;;;;;5054805;28;20454;-65
2022/12/06 09:39:10;;;;;;;5.50;4.83;;;3.40;99.90;;;;;;5054941;28;20461;-65
2022/12/06 09:41:55;;;;;;;6.53;5.10;;;3.40;99.90;;;;;;5054647;28;20442;-65
2022/12/06 09:44:41;;;;;;;6.67;5.10;;;3.50;99.90;;;;;;5054271;28;20975;-66
2022/12/06 09:47:20;;;;;;;6.30;5.23;;;3.50;99.90;;;;;;5054683;28;20593;-66
2022/12/06 09:49:57;;;;;;;5.03;4.60;;;3.60;99.90;;;;;;5054462;28;20991;-66
2022/12/06 09:52:39;;;;;;;5.37;4.60;;;3.70;99.90;;;;;;5054456;28;20453;-66
2022/12/06 09:55:17;;;;;;;5.73;5.13;;;3.80;99.90;;;;;;5054135;28;20476;-66
2022/12/06 09:57:51;;;;;;;7.87;4.53;;;3.80;99.90;;;;;;5054356;28;20963;-66
2022/12/06 10:00:21;;;;;;;6.73;4.97;;;3.90;99.90;;;;;;5054349;28;20451;-66
2022/12/06 10:03:14;;;;;;;5.77;5.10;;;4.00;99.90;;;;;;5054317;28;20460;-66
2022/12/06 10:05:56;;;;;;;4.90;4.40;;;4.00;99.90;;;;;;5053901;28;20473;-66
2022/12/06 10:08:35;;;;;;;5.23;4.60;;;4.10;99.90;;;;;;5054306;28;20446;-66
2022/12/06 10:11:11;;;;;;;4.40;3.97;;;4.30;99.90;;;;;;5053988;28;20455;-66
2022/12/06 10:13:54;;;;;;;5.43;4.70;;;4.40;99.90;;;;;;5054045;28;20463;-66
2022/12/06 10:16:32;;;;;;;6.80;4.93;;;4.40;99.90;;;;;;5053594;28;20452;-66
2022/12/06 10:19:13;;;;;;;6.90;4.37;;;4.50;99.90;;;;;;5054007;28;20456;-66
2022/12/06 10:21:51;;;;;;;6.80;4.43;;;4.50;99.90;;;;;;5054112;28;20448;-66
2022/12/06 10:24:32;;;;;;;5.00;4.20;;;4.60;99.90;;;;;;5053898;28;20473;-66
2022/12/06 10:27:06;;;;;;;5.10;4.53;;;4.60;99.90;;;;;;5053693;28;20484;-66
2022/12/06 10:29:46;;;;;;;5.13;4.63;;;4.70;99.90;;;;;;5053723;28;20456;-66
2022/12/06 10:32:17;;;;;;;4.30;3.87;;;4.80;99.90;;;;;;5053918;28;20456;-66
2022/12/06 10:34:54;;;;;;;4.60;4.20;;;4.80;99.90;;;;;;5053586;28;20876;-66
2022/12/06 10:37:36;;;;;;;6.00;4.40;;;5.00;99.90;;;;;;5053728;28;20929;-66
2022/12/06 10:40:07;;;;;;;5.27;3.53;;;5.30;99.90;;;;;;5053501;28;20452;-66
2022/12/06 10:42:40;;;;;;;4.00;3.70;;;5.70;99.90;;;;;;5053526;28;20513;-66
2022/12/06 10:48:12;;;;;;;4.07;3.67;;;6.40;99.90;;;;;;5053398;28;20483;-66
2022/12/06 10:50:41;;;;;;;4.20;3.80;;;6.40;99.90;;;;;;5053084;28;20470;-66
2022/12/06 10:53:12;;;;;;;4.90;3.93;;;6.60;99.90;;;;;;5053437;28;20455;-66
2022/12/06 10:55:44;;;;;;;5.67;4.03;;;6.70;99.90;;;;;;5053215;28;20503;-66
2022/12/06 10:58:18;;;;;;;3.60;3.30;;;6.70;99.90;;;;;;5053400;28;20451;-66
2022/12/06 11:00:54;;;;;;;3.67;3.37;;;6.70;99.90;;;;;;5053216;28;20444;-66
2022/12/06 11:03:26;;;;;;;3.57;3.23;;;6.50;99.90;;;;;;5053099;28;20502;-66
2022/12/06 11:05:57;;;;;;;3.30;3.03;;;6.30;99.90;;;;;;5053168;28;20461;-66
2022/12/06 11:08:28;;;;;;;4.30;3.33;;;6.10;99.90;;;;;;5053163;28;20473;-66
2022/12/06 11:10:58;;;;;;;6.13;3.73;;;6.00;99.90;;;;;;5052955;28;20456;-66
2022/12/06 11:13:32;;;;;;;3.77;3.30;;;5.80;99.90;;;;;;5052971;28;20879;-66
2022/12/06 11:16:05;;;;;;;5.20;3.30;;;5.70;99.90;;;;;;5052370;28;20448;-66
2022/12/06 11:18:33;;;;;;;4.33;3.90;;;5.60;99.90;;;;;;5052793;28;20499;-66
2022/12/06 11:21:06;;;;;;;4.70;4.03;;;5.60;99.90;;;;;;5052614;28;20456;-66
2022/12/06 11:23:40;;;;;;;3.43;3.13;;;5.50;99.90;;;;;;5052682;28;20443;-66
2022/12/06 11:26:21;;;;;;;4.23;3.00;;;5.40;99.90;;;;;;5052462;28;20454;-66
2022/12/06 11:28:58;;;;;;;3.17;2.97;;;5.40;99.90;;;;;;5052908;28;20463;-66
2022/12/06 11:31:30;;;;;;;3.77;3.47;;;5.30;99.90;;;;;;5052591;28;20911;-66
2022/12/06 11:33:58;;;;;;;6.50;3.70;;;5.30;99.90;;;;;;5052428;28;20491;-66
2022/12/06 11:36:27;;;;;;;3.90;3.60;;;5.30;99.90;;;;;;5052531;28;20455;-66
2022/12/06 11:38:54;;;;;;;3.57;3.27;;;5.30;99.90;;;;;;5052814;28;20453;-66
2022/12/06 11:41:23;;;;;;;3.80;3.43;;;5.30;99.90;;;;;;5052422;28;20474;-66
2022/12/06 11:43:51;;;;;;;5.50;3.60;;;5.30;99.90;;;;;;5052335;28;20479;-66
2022/12/06 11:46:18;;;;;;;5.10;3.70;;;5.20;99.90;;;;;;5051999;28;20476;-66
2022/12/06 11:48:46;;;;;;;5.50;4.20;;;5.20;99.90;;;;;;5052110;28;20452;-66
2022/12/06 11:51:18;;;;;;;4.50;4.10;;;5.20;99.90;;;;;;5052134;28;20820;-66
2022/12/06 11:53:57;;;;;;;6.53;3.50;;;5.20;99.90;;;;;;5052245;28;20847;-65
2022/12/06 11:56:26;;;;;;;4.10;3.70;;;5.20;99.90;;;;;;5052345;28;20466;-65
2022/12/06 11:59:03;;;;;;;5.27;3.40;;;5.20;99.90;;;;;;5051998;28;20548;-66
2022/12/06 12:01:42;;;;;;;4.40;4.00;;;5.20;99.90;;;;;;5052081;28;20455;-66
2022/12/06 12:04:36;;;;;;;6.77;3.90;;;5.20;99.90;;;;;;5052273;28;20475;-66
2022/12/06 12:07:10;;;;;;;3.90;3.60;;;5.20;99.90;;;;;;5046321;28;20489;-66
2022/12/06 12:09:49;;;;;;;4.73;4.20;;;5.20;99.90;;;;;;5051825;28;20482;-66
2022/12/06 12:12:18;;;;;;;4.77;4.20;;;5.20;99.90;;;;;;5051919;28;20458;-66
2022/12/06 12:14:53;;;;;;;6.30;4.03;;;5.10;99.90;;;;;;5051673;28;20460;-66
2022/12/06 12:17:24;;;;;;;5.00;4.10;;;5.10;99.90;;;;;;5051631;28;20452;-66
2022/12/06 12:19:57;;;;;;;4.03;3.47;;;5.10;99.90;;;;;;5051961;28;20456;-65
2022/12/06 12:22:30;;;;;;;4.60;3.93;;;5.00;99.90;;;;;;5051756;28;20456;-65
2022/12/06 12:24:58;;;;;;;6.60;4.10;;;4.90;99.90;;;;;;5051694;28;20495;-66
2022/12/06 12:27:45;;;;;;;4.87;4.27;;;4.90;99.90;;;;;;5051605;28;20478;-66
2022/12/06 12:30:27;;;;;;;4.33;3.47;;;4.80;99.90;;;;;;5050617;28;20474;-66
2022/12/06 12:33:17;;;;;;;4.50;3.47;;;4.80;99.90;;;;;;5051750;28;20449;-66
2022/12/06 12:35:47;;;;;;;4.40;4.00;;;4.80;99.90;;;;;;5051204;28;20471;-66
2022/12/06 12:38:18;;;;;;;3.77;3.40;;;4.70;99.90;;;;;;5051403;28;20452;-66
2022/12/06 12:40:47;;;;;;;4.00;3.60;;;4.70;99.90;;;;;;5051648;28;20456;-66
2022/12/06 12:43:19;;;;;;;4.43;3.07;;;4.70;99.90;;;;;;5051738;28;20548;-66
2022/12/06 12:46:17;;;;;;;5.17;3.43;;;4.70;99.90;;;;;;5051355;28;20464;-66
2022/12/06 12:48:46;;;;;;;4.43;3.67;;;4.70;99.90;;;;;;5051187;28;20474;-66
2022/12/06 12:51:28;;;;;;;4.07;3.20;;;4.60;99.90;;;;;;5051469;28;20479;-66
2022/12/06 12:53:58;;;;;;;4.23;3.37;;;4.60;99.90;;;;;;5051852;28;20473;-66
2022/12/06 12:56:25;;;;;;;3.93;3.10;;;4.60;99.90;;;;;;5051223;28;20500;-66
2022/12/06 12:58:53;;;;;;;7.90;3.87;;;4.60;99.90;;;;;;5051347;28;20455;-66
2022/12/06 13:01:36;;;;;;;7.70;4.13;;;4.60;99.90;;;;;;5051043;28;20540;-66
2022/12/06 13:04:07;;;;;;;4.47;3.60;;;4.50;99.90;;;;;;5051358;28;20484;-66
2022/12/06 13:06:42;;;;;;;3.93;3.20;;;4.50;99.90;;;;;;5050974;28;20761;-66
2022/12/06 13:09:17;;;;;;;3.97;3.57;;;4.50;99.90;;;;;;5051705;28;20452;-66
2022/12/06 13:11:48;;;;;;;5.60;3.87;;;4.50;99.90;;;;;;5050879;28;20447;-67
2022/12/06 13:14:19;;;;;;;5.63;4.33;;;4.50;99.90;;;;;;5051377;28;20476;-66
2022/12/06 13:16:48;;;;;;;4.60;3.73;;;4.50;99.90;;;;;;5051145;28;20451;-66
2022/12/06 13:19:17;;;;;;;5.60;4.07;;;4.50;99.90;;;;;;5051114;28;20878;-66
2022/12/06 13:21:47;;;;;;;6.50;4.40;;;4.50;99.90;;;;;;5051028;28;20459;-66
2022/12/06 13:24:20;;;;;;;7.87;5.00;;;4.50;99.90;;;;;;5051263;28;20520;-66
2022/12/06 13:26:50;;;;;;;4.77;4.33;;;4.50;99.90;;;;;;5050956;28;20475;-66
2022/12/06 13:29:26;;;;;;;5.33;4.83;;;4.50;99.90;;;;;;5051112;28;20461;-66
2022/12/06 13:31:54;;;;;;;7.93;5.17;;;4.50;99.90;;;;;;5050776;28;20456;-66
2022/12/06 13:34:26;;;;;;;5.37;4.20;;;4.50;99.90;;;;;;5051127;28;20526;-66
2022/12/06 13:36:54;;;;;;;6.57;4.73;;;4.40;99.90;;;;;;5050950;28;20455;-66